sensor_id;sensor_type;location;lat;lon;timestamp;P1;durP1;ratioP1;P2;durP2;ratioP2
8592;SDS011;4334;49.982;8.398;2022-12-18T00:01:52;48.07;;;16.77;;
8592;SDS011;4334;49.982;8.398;2022-12-18T00:04:19;45.07;;;16.27;;
8592;SDS011;4334;49.982;8.398;2022-12-18T00:06:48;49.27;;;17.23;;
8592;SDS011;4334;49.982;8.398;2022-12-18T00:09:15;52.23;;;17.40;;
8592;SDS011;4334;49.982;8.398;2022-12-18T00:11:42;41.70;;;15.57;;
8592;SDS011;4334;49.982;8.398;2022-12-18T00:14:11;52.47;;;16.77;;
8592;SDS011;4334;49.982;8.398;2022-12-18T00:16:39;45.57;;;16.50;;
8592;SDS011;4334;49.982;8.398;2022-12-18T00:19:06;47.90;;;16.53;;
8592;SDS011;4334;49.982;8.398;2022-12-18T00:21:33;47.87;;;16.30;;
8592;SDS011;4334;49.982;8.398;2022-12-18T00:24:00;44.63;;;16.00;;
8592;SDS011;4334;49.982;8.398;2022-12-18T00:26:27;45.00;;;16.50;;
8592;SDS011;4334;49.982;8.398;2022-12-18T00:28:58;42.40;;;15.27;;
8592;SDS011;4334;49.982;8.398;2022-12-18T00:31:27;46.40;;;14.47;;
8592;SDS011;4334;49.982;8.398;2022-12-18T00:33:54;47.47;;;16.47;;
8592;SDS011;4334;49.982;8.398;2022-12-18T00:36:22;50.10;;;16.07;;
8592;SDS011;4334;49.982;8.398;2022-12-18T00:38:49;47.57;;;15.47;;
8592;SDS011;4334;49.982;8.398;2022-12-18T00:41:17;47.70;;;15.63;;
8592;SDS011;4334;49.982;8.398;2022-12-18T00:44:05;47.27;;;15.83;;
8592;SDS011;4334;49.982;8.398;2022-12-18T00:46:33;43.83;;;14.93;;
8592;SDS011;4334;49.982;8.398;2022-12-18T00:49:01;52.17;;;15.97;;
8592;SDS011;4334;49.982;8.398;2022-12-18T00:51:28;54.17;;;16.03;;
8592;SDS011;4334;49.982;8.398;2022-12-18T00:53:54;48.17;;;16.77;;
8592;SDS011;4334;49.982;8.398;2022-12-18T00:56:21;49.07;;;14.97;;
8592;SDS011;4334;49.982;8.398;2022-12-18T00:58:48;47.13;;;15.20;;
8592;SDS011;4334;49.982;8.398;2022-12-18T01:01:15;41.00;;;14.27;;
8592;SDS011;4334;49.982;8.398;2022-12-18T01:03:44;59.13;;;16.53;;
8592;SDS011;4334;49.982;8.398;2022-12-18T01:06:12;46.30;;;15.93;;
8592;SDS011;4334;49.982;8.398;2022-12-18T01:08:40;48.63;;;15.00;;
8592;SDS011;4334;49.982;8.398;2022-12-18T01:11:08;52.27;;;16.53;;
8592;SDS011;4334;49.982;8.398;2022-12-18T01:13:36;54.10;;;16.77;;
8592;SDS011;4334;49.982;8.398;2022-12-18T01:16:04;37.90;;;15.93;;
8592;SDS011;4334;49.982;8.398;2022-12-18T01:18:31;50.50;;;17.23;;
8592;SDS011;4334;49.982;8.398;2022-12-18T01:20:59;42.70;;;15.13;;
8592;SDS011;4334;49.982;8.398;2022-12-18T01:23:26;49.37;;;16.17;;
8592;SDS011;4334;49.982;8.398;2022-12-18T01:25:54;51.80;;;17.33;;
8592;SDS011;4334;49.982;8.398;2022-12-18T01:28:20;50.73;;;16.07;;
8592;SDS011;4334;49.982;8.398;2022-12-18T01:30:47;54.07;;;16.03;;
8592;SDS011;4334;49.982;8.398;2022-12-18T01:33:14;48.27;;;16.83;;
8592;SDS011;4334;49.982;8.398;2022-12-18T01:35:41;44.07;;;14.43;;
8592;SDS011;4334;49.982;8.398;2022-12-18T01:38:09;59.17;;;16.40;;
8592;SDS011;4334;49.982;8.398;2022-12-18T01:40:36;52.43;;;15.23;;
8592;SDS011;4334;49.982;8.398;2022-12-18T01:43:03;42.00;;;15.03;;
8592;SDS011;4334;49.982;8.398;2022-12-18T01:45:30;44.73;;;14.17;;
8592;SDS011;4334;49.982;8.398;2022-12-18T01:47:58;53.03;;;15.73;;
8592;SDS011;4334;49.982;8.398;2022-12-18T01:50:29;49.37;;;15.80;;
8592;SDS011;4334;49.982;8.398;2022-12-18T01:52:59;50.77;;;17.00;;
8592;SDS011;4334;49.982;8.398;2022-12-18T01:55:32;52.70;;;16.00;;
8592;SDS011;4334;49.982;8.398;2022-12-18T01:58:03;46.10;;;15.40;;
8592;SDS011;4334;49.982;8.398;2022-12-18T02:00:31;55.93;;;16.33;;
8592;SDS011;4334;49.982;8.398;2022-12-18T02:02:57;43.83;;;16.00;;
8592;SDS011;4334;49.982;8.398;2022-12-18T02:05:26;47.83;;;16.17;;
8592;SDS011;4334;49.982;8.398;2022-12-18T02:08:04;40.63;;;14.07;;
8592;SDS011;4334;49.982;8.398;2022-12-18T02:10:38;50.80;;;16.20;;
8592;SDS011;4334;49.982;8.398;2022-12-18T02:13:12;43.87;;;15.03;;
8592;SDS011;4334;49.982;8.398;2022-12-18T02:15:48;46.77;;;14.93;;
8592;SDS011;4334;49.982;8.398;2022-12-18T02:18:23;38.17;;;14.83;;
8592;SDS011;4334;49.982;8.398;2022-12-18T02:20:54;43.23;;;14.40;;
8592;SDS011;4334;49.982;8.398;2022-12-18T02:23:32;42.97;;;14.43;;
8592;SDS011;4334;49.982;8.398;2022-12-18T02:26:16;40.97;;;14.70;;
8592;SDS011;4334;49.982;8.398;2022-12-18T02:28:47;49.07;;;14.07;;
8592;SDS011;4334;49.982;8.398;2022-12-18T02:31:19;40.83;;;13.83;;
8592;SDS011;4334;49.982;8.398;2022-12-18T02:33:49;39.67;;;15.10;;
8592;SDS011;4334;49.982;8.398;2022-12-18T02:36:17;40.60;;;14.50;;
8592;SDS011;4334;49.982;8.398;2022-12-18T02:38:46;39.40;;;13.50;;
8592;SDS011;4334;49.982;8.398;2022-12-18T02:41:13;39.10;;;13.57;;
8592;SDS011;4334;49.982;8.398;2022-12-18T02:43:47;47.37;;;15.10;;
8592;SDS011;4334;49.982;8.398;2022-12-18T02:46:23;41.70;;;14.70;;
8592;SDS011;4334;49.982;8.398;2022-12-18T02:48:55;42.97;;;13.53;;
8592;SDS011;4334;49.982;8.398;2022-12-18T02:51:29;39.97;;;14.50;;
8592;SDS011;4334;49.982;8.398;2022-12-18T02:54:06;41.27;;;14.03;;
8592;SDS011;4334;49.982;8.398;2022-12-18T02:56:38;38.87;;;13.63;;
8592;SDS011;4334;49.982;8.398;2022-12-18T02:59:12;41.53;;;14.50;;
8592;SDS011;4334;49.982;8.398;2022-12-18T03:01:43;35.73;;;13.00;;
8592;SDS011;4334;49.982;8.398;2022-12-18T03:04:18;43.00;;;14.03;;
8592;SDS011;4334;49.982;8.398;2022-12-18T03:06:53;42.07;;;13.63;;
8592;SDS011;4334;49.982;8.398;2022-12-18T03:09:24;28.40;;;11.00;;
8592;SDS011;4334;49.982;8.398;2022-12-18T03:11:58;37.17;;;12.87;;
8592;SDS011;4334;49.982;8.398;2022-12-18T03:14:52;28.60;;;11.40;;
8592;SDS011;4334;49.982;8.398;2022-12-18T03:17:25;33.53;;;12.57;;
8592;SDS011;4334;49.982;8.398;2022-12-18T03:19:54;48.23;;;13.43;;
8592;SDS011;4334;49.982;8.398;2022-12-18T03:22:24;37.13;;;12.97;;
8592;SDS011;4334;49.982;8.398;2022-12-18T03:24:53;43.13;;;14.10;;
8592;SDS011;4334;49.982;8.398;2022-12-18T03:27:23;35.13;;;13.47;;
8592;SDS011;4334;49.982;8.398;2022-12-18T03:29:52;40.80;;;14.53;;
8592;SDS011;4334;49.982;8.398;2022-12-18T03:32:25;34.73;;;12.43;;
8592;SDS011;4334;49.982;8.398;2022-12-18T03:34:55;41.33;;;14.03;;
8592;SDS011;4334;49.982;8.398;2022-12-18T03:37:24;39.73;;;14.03;;
8592;SDS011;4334;49.982;8.398;2022-12-18T03:39:51;37.93;;;14.60;;
8592;SDS011;4334;49.982;8.398;2022-12-18T03:42:20;43.70;;;14.73;;
8592;SDS011;4334;49.982;8.398;2022-12-18T03:44:53;35.87;;;13.97;;
8592;SDS011;4334;49.982;8.398;2022-12-18T03:47:25;32.07;;;13.20;;
8592;SDS011;4334;49.982;8.398;2022-12-18T03:49:56;33.37;;;13.73;;
8592;SDS011;4334;49.982;8.398;2022-12-18T03:52:29;32.03;;;12.93;;
8592;SDS011;4334;49.982;8.398;2022-12-18T03:55:01;32.23;;;14.13;;
8592;SDS011;4334;49.982;8.398;2022-12-18T03:57:32;34.70;;;14.10;;
8592;SDS011;4334;49.982;8.398;2022-12-18T04:00:00;33.43;;;13.93;;
8592;SDS011;4334;49.982;8.398;2022-12-18T04:02:30;33.80;;;14.53;;
8592;SDS011;4334;49.982;8.398;2022-12-18T04:04:59;38.20;;;14.30;;
8592;SDS011;4334;49.982;8.398;2022-12-18T04:07:30;37.37;;;13.17;;
8592;SDS011;4334;49.982;8.398;2022-12-18T04:09:58;32.13;;;13.60;;
8592;SDS011;4334;49.982;8.398;2022-12-18T04:12:28;36.77;;;14.20;;
8592;SDS011;4334;49.982;8.398;2022-12-18T04:14:56;31.03;;;12.87;;
8592;SDS011;4334;49.982;8.398;2022-12-18T04:17:23;38.43;;;14.47;;
8592;SDS011;4334;49.982;8.398;2022-12-18T04:19:50;37.00;;;13.20;;
8592;SDS011;4334;49.982;8.398;2022-12-18T04:22:17;32.67;;;12.17;;
8592;SDS011;4334;49.982;8.398;2022-12-18T04:24:44;35.93;;;14.23;;
8592;SDS011;4334;49.982;8.398;2022-12-18T04:27:11;31.07;;;13.57;;
8592;SDS011;4334;49.982;8.398;2022-12-18T04:29:37;36.90;;;14.77;;
8592;SDS011;4334;49.982;8.398;2022-12-18T04:32:05;33.67;;;13.47;;
8592;SDS011;4334;49.982;8.398;2022-12-18T04:34:32;33.87;;;13.93;;
8592;SDS011;4334;49.982;8.398;2022-12-18T04:36:59;33.77;;;14.03;;
8592;SDS011;4334;49.982;8.398;2022-12-18T04:39:26;37.03;;;14.43;;
8592;SDS011;4334;49.982;8.398;2022-12-18T04:41:53;35.33;;;14.63;;
8592;SDS011;4334;49.982;8.398;2022-12-18T04:44:20;33.07;;;15.07;;
8592;SDS011;4334;49.982;8.398;2022-12-18T04:46:46;38.97;;;14.57;;
8592;SDS011;4334;49.982;8.398;2022-12-18T04:49:14;41.80;;;15.03;;
8592;SDS011;4334;49.982;8.398;2022-12-18T04:51:41;31.83;;;13.57;;
8592;SDS011;4334;49.982;8.398;2022-12-18T04:54:08;36.07;;;14.57;;
8592;SDS011;4334;49.982;8.398;2022-12-18T04:56:35;36.20;;;15.87;;
8592;SDS011;4334;49.982;8.398;2022-12-18T04:59:02;34.43;;;15.50;;
8592;SDS011;4334;49.982;8.398;2022-12-18T05:01:29;42.83;;;17.90;;
8592;SDS011;4334;49.982;8.398;2022-12-18T05:03:55;36.20;;;15.00;;
8592;SDS011;4334;49.982;8.398;2022-12-18T05:06:23;38.33;;;16.07;;
8592;SDS011;4334;49.982;8.398;2022-12-18T05:08:50;41.27;;;15.37;;
8592;SDS011;4334;49.982;8.398;2022-12-18T05:11:17;39.30;;;15.93;;
8592;SDS011;4334;49.982;8.398;2022-12-18T05:13:44;36.10;;;15.80;;
8592;SDS011;4334;49.982;8.398;2022-12-18T05:16:11;40.97;;;15.93;;
8592;SDS011;4334;49.982;8.398;2022-12-18T05:18:38;41.03;;;16.70;;
8592;SDS011;4334;49.982;8.398;2022-12-18T05:21:05;42.47;;;16.50;;
8592;SDS011;4334;49.982;8.398;2022-12-18T05:23:33;42.87;;;16.80;;
8592;SDS011;4334;49.982;8.398;2022-12-18T05:26:01;36.80;;;16.00;;
8592;SDS011;4334;49.982;8.398;2022-12-18T05:28:30;42.83;;;14.67;;
8592;SDS011;4334;49.982;8.398;2022-12-18T05:30:59;40.67;;;15.13;;
8592;SDS011;4334;49.982;8.398;2022-12-18T05:33:29;41.17;;;14.87;;
8592;SDS011;4334;49.982;8.398;2022-12-18T05:35:58;37.90;;;14.63;;
8592;SDS011;4334;49.982;8.398;2022-12-18T05:38:26;36.50;;;15.90;;
8592;SDS011;4334;49.982;8.398;2022-12-18T05:40:56;40.17;;;16.07;;
8592;SDS011;4334;49.982;8.398;2022-12-18T05:43:23;37.87;;;16.30;;
8592;SDS011;4334;49.982;8.398;2022-12-18T05:45:51;37.33;;;15.40;;
8592;SDS011;4334;49.982;8.398;2022-12-18T05:48:18;37.03;;;15.43;;
8592;SDS011;4334;49.982;8.398;2022-12-18T05:50:46;37.97;;;16.60;;
8592;SDS011;4334;49.982;8.398;2022-12-18T05:53:14;39.13;;;16.53;;
8592;SDS011;4334;49.982;8.398;2022-12-18T05:55:42;38.03;;;14.77;;
8592;SDS011;4334;49.982;8.398;2022-12-18T05:58:12;42.87;;;17.17;;
8592;SDS011;4334;49.982;8.398;2022-12-18T06:00:41;40.60;;;16.37;;
8592;SDS011;4334;49.982;8.398;2022-12-18T06:03:09;41.77;;;15.70;;
8592;SDS011;4334;49.982;8.398;2022-12-18T06:05:37;37.47;;;16.17;;
8592;SDS011;4334;49.982;8.398;2022-12-18T06:08:05;35.93;;;15.57;;
8592;SDS011;4334;49.982;8.398;2022-12-18T06:10:32;40.40;;;15.97;;
8592;SDS011;4334;49.982;8.398;2022-12-18T06:12:59;41.80;;;16.07;;
8592;SDS011;4334;49.982;8.398;2022-12-18T06:15:27;37.00;;;17.10;;
8592;SDS011;4334;49.982;8.398;2022-12-18T06:17:54;45.83;;;16.63;;
8592;SDS011;4334;49.982;8.398;2022-12-18T06:20:21;36.20;;;16.13;;
8592;SDS011;4334;49.982;8.398;2022-12-18T06:22:47;39.93;;;17.43;;
8592;SDS011;4334;49.982;8.398;2022-12-18T06:25:14;42.63;;;18.07;;
8592;SDS011;4334;49.982;8.398;2022-12-18T06:27:41;37.63;;;16.63;;
8592;SDS011;4334;49.982;8.398;2022-12-18T06:30:09;40.57;;;16.33;;
8592;SDS011;4334;49.982;8.398;2022-12-18T06:32:38;36.47;;;16.53;;
8592;SDS011;4334;49.982;8.398;2022-12-18T06:35:05;42.93;;;16.90;;
8592;SDS011;4334;49.982;8.398;2022-12-18T06:37:33;44.83;;;17.17;;
8592;SDS011;4334;49.982;8.398;2022-12-18T06:39:59;37.20;;;16.33;;
8592;SDS011;4334;49.982;8.398;2022-12-18T06:42:27;42.07;;;17.47;;
8592;SDS011;4334;49.982;8.398;2022-12-18T06:44:54;40.73;;;17.73;;
8592;SDS011;4334;49.982;8.398;2022-12-18T06:47:21;46.43;;;17.30;;
8592;SDS011;4334;49.982;8.398;2022-12-18T06:49:49;40.87;;;16.50;;
8592;SDS011;4334;49.982;8.398;2022-12-18T06:52:16;37.97;;;16.83;;
8592;SDS011;4334;49.982;8.398;2022-12-18T06:54:43;31.53;;;15.83;;
8592;SDS011;4334;49.982;8.398;2022-12-18T06:57:09;42.57;;;17.73;;
8592;SDS011;4334;49.982;8.398;2022-12-18T06:59:36;39.50;;;17.93;;
8592;SDS011;4334;49.982;8.398;2022-12-18T07:02:03;47.60;;;16.63;;
8592;SDS011;4334;49.982;8.398;2022-12-18T07:04:30;40.37;;;17.53;;
8592;SDS011;4334;49.982;8.398;2022-12-18T07:06:58;34.30;;;16.30;;
8592;SDS011;4334;49.982;8.398;2022-12-18T07:09:25;39.83;;;16.93;;
8592;SDS011;4334;49.982;8.398;2022-12-18T07:11:52;35.00;;;16.63;;
8592;SDS011;4334;49.982;8.398;2022-12-18T07:14:19;40.53;;;16.90;;
8592;SDS011;4334;49.982;8.398;2022-12-18T07:16:46;38.60;;;18.13;;
8592;SDS011;4334;49.982;8.398;2022-12-18T07:19:12;40.80;;;17.90;;
8592;SDS011;4334;49.982;8.398;2022-12-18T07:21:39;43.17;;;17.50;;
8592;SDS011;4334;49.982;8.398;2022-12-18T07:24:07;40.13;;;16.80;;
8592;SDS011;4334;49.982;8.398;2022-12-18T07:26:34;51.23;;;18.10;;
8592;SDS011;4334;49.982;8.398;2022-12-18T07:29:01;43.73;;;17.73;;
8592;SDS011;4334;49.982;8.398;2022-12-18T07:31:28;43.97;;;17.60;;
8592;SDS011;4334;49.982;8.398;2022-12-18T07:33:54;45.83;;;18.60;;
8592;SDS011;4334;49.982;8.398;2022-12-18T07:36:21;44.13;;;18.80;;
8592;SDS011;4334;49.982;8.398;2022-12-18T07:38:48;40.87;;;17.03;;
8592;SDS011;4334;49.982;8.398;2022-12-18T07:41:17;41.07;;;18.80;;
8592;SDS011;4334;49.982;8.398;2022-12-18T07:43:45;38.07;;;17.03;;
8592;SDS011;4334;49.982;8.398;2022-12-18T07:46:12;39.00;;;18.07;;
8592;SDS011;4334;49.982;8.398;2022-12-18T07:48:40;42.20;;;18.47;;
8592;SDS011;4334;49.982;8.398;2022-12-18T07:51:08;43.63;;;18.23;;
8592;SDS011;4334;49.982;8.398;2022-12-18T07:53:38;46.00;;;19.70;;
8592;SDS011;4334;49.982;8.398;2022-12-18T07:56:06;48.23;;;19.60;;
8592;SDS011;4334;49.982;8.398;2022-12-18T07:58:35;48.83;;;19.70;;
8592;SDS011;4334;49.982;8.398;2022-12-18T08:01:04;40.90;;;18.50;;
8592;SDS011;4334;49.982;8.398;2022-12-18T08:03:31;43.97;;;18.77;;
8592;SDS011;4334;49.982;8.398;2022-12-18T08:05:59;40.70;;;18.27;;
8592;SDS011;4334;49.982;8.398;2022-12-18T08:08:26;46.33;;;18.80;;
8592;SDS011;4334;49.982;8.398;2022-12-18T08:10:53;43.73;;;18.83;;
8592;SDS011;4334;49.982;8.398;2022-12-18T08:13:20;45.90;;;18.80;;
8592;SDS011;4334;49.982;8.398;2022-12-18T08:15:56;43.73;;;19.87;;
8592;SDS011;4334;49.982;8.398;2022-12-18T08:18:23;45.87;;;19.60;;
8592;SDS011;4334;49.982;8.398;2022-12-18T08:20:50;42.10;;;18.77;;
8592;SDS011;4334;49.982;8.398;2022-12-18T08:23:17;42.57;;;19.00;;
8592;SDS011;4334;49.982;8.398;2022-12-18T08:25:44;45.57;;;20.97;;
8592;SDS011;4334;49.982;8.398;2022-12-18T08:28:11;54.10;;;21.73;;
8592;SDS011;4334;49.982;8.398;2022-12-18T08:30:37;47.87;;;20.80;;
8592;SDS011;4334;49.982;8.398;2022-12-18T08:33:05;46.40;;;21.20;;
8592;SDS011;4334;49.982;8.398;2022-12-18T08:35:34;49.77;;;21.87;;
8592;SDS011;4334;49.982;8.398;2022-12-18T08:38:01;48.87;;;22.33;;
8592;SDS011;4334;49.982;8.398;2022-12-18T08:40:28;45.67;;;21.33;;
8592;SDS011;4334;49.982;8.398;2022-12-18T08:42:55;49.20;;;21.67;;
8592;SDS011;4334;49.982;8.398;2022-12-18T08:45:39;51.33;;;21.83;;
8592;SDS011;4334;49.982;8.398;2022-12-18T08:48:07;45.83;;;21.67;;
8592;SDS011;4334;49.982;8.398;2022-12-18T08:50:34;46.27;;;22.10;;
8592;SDS011;4334;49.982;8.398;2022-12-18T08:53:00;49.30;;;23.27;;
8592;SDS011;4334;49.982;8.398;2022-12-18T08:55:28;43.73;;;22.83;;
8592;SDS011;4334;49.982;8.398;2022-12-18T08:57:54;50.77;;;23.00;;
8592;SDS011;4334;49.982;8.398;2022-12-18T09:00:21;49.87;;;21.33;;
8592;SDS011;4334;49.982;8.398;2022-12-18T09:02:48;44.27;;;21.17;;
8592;SDS011;4334;49.982;8.398;2022-12-18T09:05:16;44.97;;;20.37;;
8592;SDS011;4334;49.982;8.398;2022-12-18T09:07:43;41.53;;;20.77;;
8592;SDS011;4334;49.982;8.398;2022-12-18T09:10:09;46.13;;;21.57;;
8592;SDS011;4334;49.982;8.398;2022-12-18T09:12:36;44.80;;;20.80;;
8592;SDS011;4334;49.982;8.398;2022-12-18T09:15:03;46.67;;;20.07;;
8592;SDS011;4334;49.982;8.398;2022-12-18T09:17:31;39.47;;;19.40;;
8592;SDS011;4334;49.982;8.398;2022-12-18T09:19:57;44.27;;;20.70;;
8592;SDS011;4334;49.982;8.398;2022-12-18T09:22:25;37.47;;;18.77;;
8592;SDS011;4334;49.982;8.398;2022-12-18T09:24:52;36.37;;;19.50;;
8592;SDS011;4334;49.982;8.398;2022-12-18T09:27:19;37.83;;;19.23;;
8592;SDS011;4334;49.982;8.398;2022-12-18T09:29:46;38.43;;;19.67;;
8592;SDS011;4334;49.982;8.398;2022-12-18T09:32:13;36.70;;;19.37;;
8592;SDS011;4334;49.982;8.398;2022-12-18T09:34:40;36.03;;;19.23;;
8592;SDS011;4334;49.982;8.398;2022-12-18T09:37:07;36.67;;;18.27;;
8592;SDS011;4334;49.982;8.398;2022-12-18T09:39:35;34.83;;;18.30;;
8592;SDS011;4334;49.982;8.398;2022-12-18T09:42:02;35.10;;;17.60;;
8592;SDS011;4334;49.982;8.398;2022-12-18T09:44:29;33.80;;;18.57;;
8592;SDS011;4334;49.982;8.398;2022-12-18T09:47:06;34.50;;;17.97;;
8592;SDS011;4334;49.982;8.398;2022-12-18T09:49:38;35.17;;;18.83;;
8592;SDS011;4334;49.982;8.398;2022-12-18T09:52:10;33.13;;;18.23;;
8592;SDS011;4334;49.982;8.398;2022-12-18T09:54:43;31.03;;;17.43;;
8592;SDS011;4334;49.982;8.398;2022-12-18T09:57:14;32.63;;;17.83;;
8592;SDS011;4334;49.982;8.398;2022-12-18T09:59:44;34.53;;;18.53;;
8592;SDS011;4334;49.982;8.398;2022-12-18T10:02:16;35.53;;;17.73;;
8592;SDS011;4334;49.982;8.398;2022-12-18T10:04:48;33.63;;;17.33;;
8592;SDS011;4334;49.982;8.398;2022-12-18T10:07:21;32.10;;;17.57;;
8592;SDS011;4334;49.982;8.398;2022-12-18T10:09:58;33.13;;;17.53;;
8592;SDS011;4334;49.982;8.398;2022-12-18T10:12:32;37.07;;;19.07;;
8592;SDS011;4334;49.982;8.398;2022-12-18T10:15:05;33.80;;;18.00;;
8592;SDS011;4334;49.982;8.398;2022-12-18T10:17:41;33.23;;;17.57;;
8592;SDS011;4334;49.982;8.398;2022-12-18T10:20:17;35.37;;;18.70;;
8592;SDS011;4334;49.982;8.398;2022-12-18T10:22:53;35.33;;;18.07;;
8592;SDS011;4334;49.982;8.398;2022-12-18T10:25:29;33.93;;;18.00;;
8592;SDS011;4334;49.982;8.398;2022-12-18T10:28:07;34.77;;;18.93;;
8592;SDS011;4334;49.982;8.398;2022-12-18T10:30:36;37.43;;;18.17;;
8592;SDS011;4334;49.982;8.398;2022-12-18T10:33:05;35.03;;;18.47;;
8592;SDS011;4334;49.982;8.398;2022-12-18T10:35:32;35.27;;;17.90;;
8592;SDS011;4334;49.982;8.398;2022-12-18T10:38:03;35.03;;;18.20;;
8592;SDS011;4334;49.982;8.398;2022-12-18T10:40:34;37.63;;;19.27;;
8592;SDS011;4334;49.982;8.398;2022-12-18T10:43:15;37.73;;;20.33;;
8592;SDS011;4334;49.982;8.398;2022-12-18T10:45:56;39.20;;;19.40;;
8592;SDS011;4334;49.982;8.398;2022-12-18T10:48:26;37.17;;;18.17;;
8592;SDS011;4334;49.982;8.398;2022-12-18T10:50:54;41.30;;;19.77;;
8592;SDS011;4334;49.982;8.398;2022-12-18T10:53:22;36.77;;;18.87;;
8592;SDS011;4334;49.982;8.398;2022-12-18T10:55:52;39.20;;;18.80;;
8592;SDS011;4334;49.982;8.398;2022-12-18T10:58:23;40.93;;;19.23;;
8592;SDS011;4334;49.982;8.398;2022-12-18T11:03:38;37.70;;;18.17;;
8592;SDS011;4334;49.982;8.398;2022-12-18T11:06:07;39.77;;;20.47;;
8592;SDS011;4334;49.982;8.398;2022-12-18T11:08:35;39.10;;;19.13;;
8592;SDS011;4334;49.982;8.398;2022-12-18T11:11:06;41.00;;;19.17;;
8592;SDS011;4334;49.982;8.398;2022-12-18T11:13:48;37.40;;;18.43;;
8592;SDS011;4334;49.982;8.398;2022-12-18T11:16:26;40.83;;;20.10;;
8592;SDS011;4334;49.982;8.398;2022-12-18T11:18:53;42.13;;;20.10;;
8592;SDS011;4334;49.982;8.398;2022-12-18T11:21:20;38.93;;;19.27;;
8592;SDS011;4334;49.982;8.398;2022-12-18T11:23:49;42.70;;;19.87;;
8592;SDS011;4334;49.982;8.398;2022-12-18T11:26:18;38.63;;;19.17;;
8592;SDS011;4334;49.982;8.398;2022-12-18T11:28:47;41.30;;;19.20;;
8592;SDS011;4334;49.982;8.398;2022-12-18T11:31:21;38.80;;;19.17;;
8592;SDS011;4334;49.982;8.398;2022-12-18T11:33:54;45.70;;;20.97;;
8592;SDS011;4334;49.982;8.398;2022-12-18T11:36:28;43.17;;;20.47;;
8592;SDS011;4334;49.982;8.398;2022-12-18T11:38:59;46.13;;;20.60;;
8592;SDS011;4334;49.982;8.398;2022-12-18T11:41:34;42.40;;;20.13;;
8592;SDS011;4334;49.982;8.398;2022-12-18T11:44:24;37.70;;;18.43;;
8592;SDS011;4334;49.982;8.398;2022-12-18T11:46:55;36.47;;;18.00;;
8592;SDS011;4334;49.982;8.398;2022-12-18T11:49:26;37.57;;;18.80;;
8592;SDS011;4334;49.982;8.398;2022-12-18T11:51:58;45.20;;;20.93;;
8592;SDS011;4334;49.982;8.398;2022-12-18T11:54:30;37.83;;;19.53;;
8592;SDS011;4334;49.982;8.398;2022-12-18T11:57:01;40.17;;;18.30;;
8592;SDS011;4334;49.982;8.398;2022-12-18T11:59:37;45.67;;;19.90;;
8592;SDS011;4334;49.982;8.398;2022-12-18T12:02:17;45.20;;;19.67;;
8592;SDS011;4334;49.982;8.398;2022-12-18T12:05:01;43.47;;;19.30;;
8592;SDS011;4334;49.982;8.398;2022-12-18T12:07:43;46.13;;;20.60;;
8592;SDS011;4334;49.982;8.398;2022-12-18T12:10:19;42.47;;;20.07;;
8592;SDS011;4334;49.982;8.398;2022-12-18T12:13:08;40.17;;;19.67;;
8592;SDS011;4334;49.982;8.398;2022-12-18T12:15:51;42.97;;;19.30;;
8592;SDS011;4334;49.982;8.398;2022-12-18T12:18:27;42.57;;;18.97;;
8592;SDS011;4334;49.982;8.398;2022-12-18T12:21:04;43.90;;;19.43;;
8592;SDS011;4334;49.982;8.398;2022-12-18T12:23:38;40.77;;;18.87;;
8592;SDS011;4334;49.982;8.398;2022-12-18T12:26:13;41.07;;;19.47;;
8592;SDS011;4334;49.982;8.398;2022-12-18T12:29:04;46.20;;;18.73;;
8592;SDS011;4334;49.982;8.398;2022-12-18T12:31:43;43.03;;;20.03;;
8592;SDS011;4334;49.982;8.398;2022-12-18T12:34:25;45.70;;;19.83;;
8592;SDS011;4334;49.982;8.398;2022-12-18T12:37:01;46.33;;;20.17;;
8592;SDS011;4334;49.982;8.398;2022-12-18T12:39:37;43.07;;;19.17;;
8592;SDS011;4334;49.982;8.398;2022-12-18T12:42:13;42.23;;;19.00;;
8592;SDS011;4334;49.982;8.398;2022-12-18T12:45:01;38.07;;;18.10;;
8592;SDS011;4334;49.982;8.398;2022-12-18T12:47:33;42.07;;;20.03;;
8592;SDS011;4334;49.982;8.398;2022-12-18T12:50:05;46.93;;;19.00;;
8592;SDS011;4334;49.982;8.398;2022-12-18T12:52:39;40.33;;;18.97;;
8592;SDS011;4334;49.982;8.398;2022-12-18T12:55:12;43.50;;;19.37;;
8592;SDS011;4334;49.982;8.398;2022-12-18T12:57:44;43.03;;;18.50;;
8592;SDS011;4334;49.982;8.398;2022-12-18T13:00:16;43.57;;;19.53;;
8592;SDS011;4334;49.982;8.398;2022-12-18T13:02:47;45.67;;;19.00;;
8592;SDS011;4334;49.982;8.398;2022-12-18T13:05:19;42.23;;;19.13;;
8592;SDS011;4334;49.982;8.398;2022-12-18T13:07:53;48.03;;;20.10;;
8592;SDS011;4334;49.982;8.398;2022-12-18T13:10:26;45.50;;;19.33;;
8592;SDS011;4334;49.982;8.398;2022-12-18T13:12:59;47.90;;;19.80;;
8592;SDS011;4334;49.982;8.398;2022-12-18T13:15:29;41.67;;;19.33;;
8592;SDS011;4334;49.982;8.398;2022-12-18T13:18:03;41.27;;;19.07;;
8592;SDS011;4334;49.982;8.398;2022-12-18T13:20:39;44.03;;;19.17;;
8592;SDS011;4334;49.982;8.398;2022-12-18T13:26:00;43.73;;;19.17;;
8592;SDS011;4334;49.982;8.398;2022-12-18T13:29:06;48.73;;;18.67;;
8592;SDS011;4334;49.982;8.398;2022-12-18T13:34:26;43.77;;;17.10;;
8592;SDS011;4334;49.982;8.398;2022-12-18T13:36:56;40.50;;;16.83;;
8592;SDS011;4334;49.982;8.398;2022-12-18T13:39:43;44.30;;;17.50;;
8592;SDS011;4334;49.982;8.398;2022-12-18T13:48:27;45.77;;;18.13;;
8592;SDS011;4334;49.982;8.398;2022-12-18T13:50:59;48.40;;;19.70;;
8592;SDS011;4334;49.982;8.398;2022-12-18T13:53:30;42.00;;;18.23;;
8592;SDS011;4334;49.982;8.398;2022-12-18T13:56:00;46.17;;;18.70;;
8592;SDS011;4334;49.982;8.398;2022-12-18T13:58:27;49.07;;;19.33;;
8592;SDS011;4334;49.982;8.398;2022-12-18T14:00:54;49.87;;;18.73;;
8592;SDS011;4334;49.982;8.398;2022-12-18T14:03:24;48.60;;;20.37;;
8592;SDS011;4334;49.982;8.398;2022-12-18T14:05:53;45.20;;;19.07;;
8592;SDS011;4334;49.982;8.398;2022-12-18T14:08:22;48.43;;;20.03;;
8592;SDS011;4334;49.982;8.398;2022-12-18T14:10:51;49.27;;;19.83;;
8592;SDS011;4334;49.982;8.398;2022-12-18T14:13:23;46.10;;;18.73;;
8592;SDS011;4334;49.982;8.398;2022-12-18T14:15:53;46.53;;;20.03;;
8592;SDS011;4334;49.982;8.398;2022-12-18T14:18:21;44.40;;;18.13;;
8592;SDS011;4334;49.982;8.398;2022-12-18T14:20:54;42.87;;;19.60;;
8592;SDS011;4334;49.982;8.398;2022-12-18T14:23:30;51.33;;;20.23;;
8592;SDS011;4334;49.982;8.398;2022-12-18T14:25:59;47.97;;;19.77;;
8592;SDS011;4334;49.982;8.398;2022-12-18T14:28:27;48.57;;;19.73;;
8592;SDS011;4334;49.982;8.398;2022-12-18T14:30:54;50.80;;;19.73;;
8592;SDS011;4334;49.982;8.398;2022-12-18T14:33:22;48.17;;;18.90;;
8592;SDS011;4334;49.982;8.398;2022-12-18T14:35:55;52.40;;;19.57;;
8592;SDS011;4334;49.982;8.398;2022-12-18T14:38:30;47.93;;;18.93;;
8592;SDS011;4334;49.982;8.398;2022-12-18T14:40:58;52.57;;;19.63;;
8592;SDS011;4334;49.982;8.398;2022-12-18T14:43:27;46.67;;;19.63;;
8592;SDS011;4334;49.982;8.398;2022-12-18T14:45:55;41.80;;;18.10;;
8592;SDS011;4334;49.982;8.398;2022-12-18T14:48:30;44.30;;;19.10;;
8592;SDS011;4334;49.982;8.398;2022-12-18T14:51:04;52.07;;;19.53;;
8592;SDS011;4334;49.982;8.398;2022-12-18T14:53:34;45.87;;;18.70;;
8592;SDS011;4334;49.982;8.398;2022-12-18T14:56:03;50.77;;;18.77;;
8592;SDS011;4334;49.982;8.398;2022-12-18T14:58:36;46.03;;;18.37;;
8592;SDS011;4334;49.982;8.398;2022-12-18T15:01:03;51.87;;;19.43;;
8592;SDS011;4334;49.982;8.398;2022-12-18T15:03:30;47.20;;;19.83;;
8592;SDS011;4334;49.982;8.398;2022-12-18T15:05:59;49.83;;;20.47;;
8592;SDS011;4334;49.982;8.398;2022-12-18T15:08:43;45.93;;;18.90;;
8592;SDS011;4334;49.982;8.398;2022-12-18T15:11:24;48.07;;;19.63;;
8592;SDS011;4334;49.982;8.398;2022-12-18T15:13:52;52.50;;;19.83;;
8592;SDS011;4334;49.982;8.398;2022-12-18T15:16:19;46.43;;;18.57;;
8592;SDS011;4334;49.982;8.398;2022-12-18T15:18:47;46.43;;;19.13;;
8592;SDS011;4334;49.982;8.398;2022-12-18T15:21:14;49.17;;;19.03;;